Time;durP1;ratioP1;P1;durP2;ratioP2;P2;SDS_P1;SDS_P2;PMS_P1;PMS_P2;Temp;Humidity;BMP_temperature;BMP_pressure;BME280_temperature;BME280_humidity;BME280_pressure;Samples;Min_cycle;Max_cycle;Signal;HPM_P1;HPM_P2
2022/08/01 00:02:12;;;;;;;8.18;4.32;;;;;;;24.59;51.22;98388.75;5017439;28;20076;-87
2022/08/01 00:04:38;;;;;;;5.30;3.80;;;;;;;24.62;51.16;98390.97;5000779;28;20061;-87
2022/08/01 00:07:03;;;;;;;8.55;4.00;;;;;;;24.69;50.83;98388.25;5017461;28;20030;-86
2022/08/01 00:09:29;;;;;;;6.32;3.80;;;;;;;24.72;50.55;98387.81;5018464;28;20038;-86
2022/08/01 00:11:54;;;;;;;6.57;4.18;;;;;;;24.77;50.66;98384.50;4984847;28;20457;-86
2022/08/01 00:14:20;;;;;;;9.30;4.10;;;;;;;24.79;51.02;98393.91;5001241;28;20541;-86
2022/08/01 00:16:45;;;;;;;5.40;3.72;;;;;;;24.83;50.84;98389.78;5015474;28;20555;-86
2022/08/01 00:19:11;;;;;;;9.52;3.85;;;;;;;24.80;50.73;98390.22;4997861;28;20030;-86
2022/08/01 00:21:36;;;;;;;5.53;3.75;;;;;;;24.72;50.51;98390.50;4997837;28;20036;-87
2022/08/01 00:24:02;;;;;;;3.95;3.45;;;;;;;24.65;50.73;98387.03;4997633;28;20425;-87
2022/08/01 00:26:27;;;;;;;7.40;3.50;;;;;;;24.66;50.53;98386.81;5014079;28;20137;-87
2022/08/01 00:28:53;;;;;;;7.78;3.78;;;;;;;24.62;50.52;98382.13;5015511;28;20493;-87
2022/08/01 00:31:18;;;;;;;5.80;3.05;;;;;;;24.67;49.98;98387.63;4997832;28;20501;-86
2022/08/01 00:33:44;;;;;;;5.85;3.10;;;;;;;24.70;49.81;98390.69;5015213;28;20405;-87
2022/08/01 00:36:09;;;;;;;5.25;3.03;;;;;;;24.72;50.08;98379.81;5015131;28;20026;-86
2022/08/01 00:38:35;;;;;;;4.93;2.97;;;;;;;24.62;50.20;98382.97;5014133;28;20489;-86
2022/08/01 00:41:00;;;;;;;3.92;2.80;;;;;;;24.58;49.75;98372.94;5014030;28;20038;-86
2022/08/01 00:43:26;;;;;;;4.38;2.60;;;;;;;24.58;49.57;98371.09;4997540;28;20034;-85
2022/08/01 00:45:51;;;;;;;5.32;2.95;;;;;;;24.53;49.32;98373.56;5015248;28;20042;-85
2022/08/01 00:48:17;;;;;;;4.22;2.45;;;;;;;24.50;48.67;98371.31;5013585;28;20034;-85
2022/08/01 00:50:42;;;;;;;6.07;2.90;;;;;;;24.55;49.22;98371.47;5013449;28;20034;-86
2022/08/01 00:53:08;;;;;;;4.38;2.65;;;;;;;24.59;49.17;98372.72;4997283;28;20033;-86
2022/08/01 00:55:33;;;;;;;3.58;2.30;;;;;;;24.59;49.25;98366.56;5013600;28;20041;-87
2022/08/01 00:57:59;;;;;;;3.13;2.60;;;;;;;24.39;49.25;98364.81;5013503;28;20045;-87
2022/08/01 01:00:24;;;;;;;4.78;2.80;;;;;;;24.37;49.97;98367.72;4997160;28;20109;-87
2022/08/01 01:02:50;;;;;;;5.63;2.50;;;;;;;24.39;49.90;98372.81;5013005;28;20034;-86
2022/08/01 01:05:15;;;;;;;3.60;2.45;;;;;;;24.47;49.37;98371.75;5014447;28;20041;-86
2022/08/01 01:08:22;;;;;;;6.60;2.47;;;;;;;24.50;49.09;98372.13;4996312;28;20050;-86
2022/08/01 01:11:01;;;;;;;5.22;2.60;;;;;;;24.49;48.41;98367.00;5002484;28;20034;-86
2022/08/01 01:13:39;;;;;;;3.95;2.13;;;;;;;24.54;48.18;98367.16;4997376;28;20033;-85
2022/08/01 01:16:15;;;;;;;6.93;2.10;;;;;;;24.59;45.92;98364.72;4997144;28;20053;-85
2022/08/01 01:18:51;;;;;;;3.78;2.08;;;;;;;24.53;46.85;98363.69;4997050;28;20030;-85
2022/08/01 01:21:17;;;;;;;8.23;1.85;;;;;;;24.47;47.38;98361.88;4997456;28;20030;-86
2022/08/01 01:24:10;;;;;;;6.78;2.00;;;;;;;24.43;46.68;98359.88;5014305;28;20030;-86
2022/08/01 01:27:15;;;;;;;3.78;1.90;;;;;;;24.46;46.95;98360.25;5012858;28;20409;-86
2022/08/01 01:29:42;;;;;;;5.80;1.60;;;;;;;24.49;46.76;98362.47;4996582;28;20046;-85
2022/08/01 01:32:28;;;;;;;3.85;1.90;;;;;;;24.47;47.45;98353.88;5013968;28;20030;-85
2022/08/01 01:34:54;;;;;;;3.38;1.65;;;;;;;24.44;46.89;98346.31;5004840;28;20125;-86
2022/08/01 01:37:21;;;;;;;5.05;1.95;;;;;;;24.43;46.59;98352.69;5013110;28;20121;-85
2022/08/01 01:39:48;;;;;;;2.47;1.67;;;;;;;24.45;45.96;98341.78;5013407;28;20034;-86
2022/08/01 01:42:14;;;;;;;7.43;1.80;;;;;;;24.45;46.53;98341.78;4997148;28;20504;-86
2022/08/01 01:44:39;;;;;;;6.85;1.70;;;;;;;24.46;45.76;98333.56;5012978;28;20020;-85
2022/08/01 01:47:05;;;;;;;4.80;1.52;;;;;;;24.49;45.57;98337.66;4996529;28;20037;-85
2022/08/01 01:49:30;;;;;;;4.13;1.50;;;;;;;24.53;45.35;98336.22;4996412;28;20485;-85
2022/08/01 01:51:56;;;;;;;5.18;1.55;;;;;;;24.55;43.79;98342.13;4996581;28;20034;-85
2022/08/01 01:54:23;;;;;;;3.45;1.30;;;;;;;24.55;43.98;98342.13;4980020;28;20022;-85
2022/08/01 01:56:49;;;;;;;3.55;1.30;;;;;;;24.58;43.62;98346.25;4997165;28;20029;-85
2022/08/01 01:59:21;;;;;;;3.17;1.20;;;;;;;24.61;43.68;98346.63;4980942;28;20025;-85
2022/08/01 02:01:51;;;;;;;3.65;1.40;;;;;;;24.58;42.74;98338.25;4997392;28;20064;-84
2022/08/01 02:04:16;;;;;;;2.75;1.38;;;;;;;24.59;42.50;98337.19;5012231;28;20092;-85
2022/08/01 02:06:42;;;;;;;5.90;1.50;;;;;;;24.56;42.92;98338.44;4995710;28;20053;-84
2022/08/01 02:09:08;;;;;;;3.30;1.30;;;;;;;24.56;43.49;98344.63;4996219;28;20038;-84
2022/08/01 02:11:34;;;;;;;1.73;1.20;;;;;;;24.53;43.76;98342.34;4995753;28;20037;-86
2022/08/01 02:14:01;;;;;;;2.72;1.50;;;;;;;24.56;43.39;98341.94;4995831;28;20026;-86
2022/08/01 02:16:29;;;;;;;1.42;1.08;;;;;;;24.63;43.29;98349.09;5012069;28;20032;-86
2022/08/01 02:18:55;;;;;;;3.13;1.40;;;;;;;24.54;42.43;98349.34;5012344;28;20049;-86
2022/08/01 02:21:25;;;;;;;3.00;1.20;;;;;;;24.43;43.78;98351.88;4995937;28;20117;-86
2022/08/01 02:23:51;;;;;;;4.47;1.20;;;;;;;24.33;42.36;98347.81;4996174;28;20109;-86
2022/08/01 02:26:17;;;;;;;3.03;1.30;;;;;;;24.37;43.48;98345.56;4995796;28;20025;-85
2022/08/01 02:28:50;;;;;;;3.90;1.48;;;;;;;24.45;41.73;98345.28;4995956;28;20040;-85
2022/08/01 02:31:17;;;;;;;2.08;1.23;;;;;;;24.51;42.34;98341.75;4979411;28;20038;-85
2022/08/01 02:34:07;;;;;;;5.43;1.55;;;;;;;24.51;42.29;98343.59;5011788;28;20041;-85
2022/08/01 02:36:33;;;;;;;3.28;1.45;;;;;;;24.55;42.04;98339.47;5011533;28;20139;-85
2022/08/01 02:39:01;;;;;;;5.10;1.13;;;;;;;24.65;41.52;98349.69;4994886;28;20041;-85
2022/08/01 02:41:27;;;;;;;2.97;1.30;;;;;;;24.63;41.95;98343.75;4995631;28;20497;-85
2022/08/01 02:43:53;;;;;;;3.67;1.38;;;;;;;24.67;41.78;98353.78;4995063;28;20041;-85
2022/08/01 02:46:41;;;;;;;3.70;1.40;;;;;;;24.65;41.35;98342.47;5011830;28;20034;-85
2022/08/01 02:49:10;;;;;;;4.45;1.33;;;;;;;24.69;41.02;98341.03;4979235;28;20129;-85
2022/08/01 02:51:35;;;;;;;3.90;1.30;;;;;;;24.71;40.85;98346.13;4995282;28;20034;-86
2022/08/01 02:54:01;;;;;;;4.10;1.17;;;;;;;24.68;40.07;98343.91;4995744;28;20048;-84
2022/08/01 02:56:34;;;;;;;1.85;1.20;;;;;;;24.65;40.71;98347.00;4995456;28;20026;-84
2022/08/01 02:59:05;;;;;;;2.00;1.20;;;;;;;24.66;40.51;98344.13;4980686;28;20038;-85
2022/08/01 03:01:32;;;;;;;6.63;1.23;;;;;;;24.74;40.18;98343.03;4995710;28;20084;-84
2022/08/01 03:03:58;;;;;;;2.78;1.10;;;;;;;24.78;39.70;98338.06;5012501;28;20049;-85
2022/08/01 03:06:23;;;;;;;2.35;1.10;;;;;;;24.73;39.47;98331.56;5011824;28;20030;-85
2022/08/01 03:08:49;;;;;;;2.67;1.20;;;;;;;24.80;39.49;98330.69;4995623;28;20401;-85
2022/08/01 03:11:14;;;;;;;3.50;1.27;;;;;;;24.81;38.94;98337.63;4994824;28;20034;-84
2022/08/01 03:13:41;;;;;;;3.25;1.45;;;;;;;24.82;39.13;98339.28;5011257;28;20460;-85
2022/08/01 03:16:06;;;;;;;3.28;1.40;;;;;;;24.84;38.57;98329.19;4978827;28;20481;-85
2022/08/01 03:18:32;;;;;;;3.85;1.13;;;;;;;24.90;38.55;98342.47;5010758;28;20057;-85
2022/08/01 03:20:57;;;;;;;4.10;1.40;;;;;;;25.14;37.56;98334.66;5011274;28;20030;-86
2022/08/01 03:23:23;;;;;;;2.63;1.20;;;;;;;25.39;36.74;98337.28;4978280;28;20084;-84
2022/08/01 03:25:48;;;;;;;3.50;1.23;;;;;;;25.65;35.54;98330.00;5011655;28;20465;-85
2022/08/01 03:28:14;;;;;;;3.13;1.25;;;;;;;25.58;35.45;98332.75;4995096;28;20029;-85
2022/08/01 03:30:40;;;;;;;3.40;1.20;;;;;;;25.42;34.96;98342.19;4978218;28;20400;-85
2022/08/01 03:33:05;;;;;;;3.58;1.48;;;;;;;25.38;35.63;98335.66;4994942;28;20481;-85
2022/08/01 03:35:34;;;;;;;2.92;1.13;;;;;;;25.52;35.02;98338.19;5010944;28;20037;-86
2022/08/01 03:38:00;;;;;;;2.58;1.17;;;;;;;26.16;33.49;98339.44;4978557;28;20037;-86
2022/08/01 03:40:37;;;;;;;4.60;1.40;;;;;;;26.78;32.30;98340.97;4978232;28;20042;-85
2022/08/01 03:43:07;;;;;;;3.33;1.10;;;;;;;27.45;30.82;98345.13;4994241;28;20050;-86
2022/08/01 03:45:40;;;;;;;2.83;1.13;;;;;;;28.11;30.16;98336.78;4995403;28;20037;-85
2022/08/01 03:48:13;;;;;;;2.47;1.40;;;;;;;28.61;29.34;98330.69;4995500;28;20076;-86
2022/08/01 03:50:41;;;;;;;3.85;1.10;;;;;;;29.14;28.65;98333.84;5011338;28;20499;-85
2022/08/01 03:53:06;;;;;;;2.95;1.10;;;;;;;29.72;27.59;98328.97;4998596;28;20400;-86
2022/08/01 03:55:32;;;;;;;2.33;0.98;;;;;;;30.31;26.60;98336.34;4999031;28;20038;-86
2022/08/01 03:57:58;;;;;;;3.28;1.20;;;;;;;30.86;25.44;98336.22;4998461;28;20209;-87
2022/08/01 04:00:24;;;;;;;1.70;1.00;;;;;;;31.37;24.81;98320.38;4999986;28;20026;-85
2022/08/01 04:02:49;;;;;;;3.83;1.00;;;;;;;32.02;24.86;98327.31;4998582;28;20064;-88
2022/08/01 04:05:16;;;;;;;2.75;1.30;;;;;;;32.86;23.65;98314.41;4998701;28;20113;-86
2022/08/01 04:07:45;;;;;;;2.50;1.20;;;;;;;33.57;23.05;98328.00;4998195;28;20551;-87
2022/08/01 04:10:11;;;;;;;3.33;1.00;;;;;;;34.22;22.02;98315.19;4998751;28;20037;-86
2022/08/01 04:12:36;;;;;;;3.03;1.10;;;;;;;34.82;21.34;98327.72;4997546;28;20045;-87
2022/08/01 04:15:03;;;;;;;3.28;1.00;;;;;;;35.43;20.80;98320.84;4981617;28;20038;-87
2022/08/01 04:17:28;;;;;;;1.67;0.90;;;;;;;36.10;20.28;98330.78;4998768;28;20477;-86
2022/08/01 04:19:53;;;;;;;2.85;1.00;;;;;;;36.67;19.47;98327.19;4997567;28;20053;-77
2022/08/01 04:22:19;;;;;;;3.00;0.95;;;;;;;37.26;18.97;98327.50;5017048;28;20034;-89
2022/08/01 04:24:48;;;;;;;4.28;1.10;;;;;;;37.81;18.33;98330.16;5001182;28;20029;-83
2022/08/01 04:27:15;;;;;;;9.52;1.20;;;;;;;38.38;18.15;98320.66;4998710;28;20120;-82
2022/08/01 04:29:40;;;;;;;7.10;0.90;;;;;;;38.91;17.55;98322.59;4998500;28;20026;-86
2022/08/01 04:32:07;;;;;;;4.47;0.98;;;;;;;39.45;16.71;98327.13;4997875;28;20107;-83
2022/08/01 04:34:32;;;;;;;11.32;1.30;;;;;;;40.00;16.84;98328.53;4999775;28;20023;-82
2022/08/01 04:36:59;;;;;;;19.30;1.33;;;;;;;40.49;16.96;98333.81;4976867;28;20476;-82
2022/08/01 04:39:27;;;;;;;8.05;1.23;;;;;;;40.92;16.54;98319.22;4977876;28;20485;-85
2022/08/01 04:41:56;;;;;;;16.05;1.38;;;;;;;41.41;16.14;98321.56;4960651;28;20042;-78
2022/08/01 04:44:22;;;;;;;6.45;1.15;;;;;;;41.84;14.53;98319.69;4976935;28;20019;-80
2022/08/01 04:46:48;;;;;;;7.47;1.10;;;;;;;42.17;14.39;98324.44;4976514;28;20457;-79
2022/08/01 04:49:16;;;;;;;7.78;1.30;;;;;;;42.42;13.97;98323.38;4979600;28;20046;-82
2022/08/01 04:51:57;;;;;;;11.40;1.48;;;;;;;42.79;14.12;98317.16;4961091;28;20034;-82
2022/08/01 04:54:24;;;;;;;6.15;0.95;;;;;;;43.12;13.87;98317.09;4997746;28;20022;-81
2022/08/01 04:56:50;;;;;;;4.93;0.90;;;;;;;43.50;13.54;98312.38;4992808;28;20034;-90
2022/08/01 05:01:59;;;;;;;4.32;0.95;;;;;;;44.60;12.08;98318.66;4994944;28;20068;-84
2022/08/01 05:04:25;;;;;;;5.07;0.73;;;;;;;45.08;12.12;98322.22;5013843;28;20049;-91
2022/08/01 05:06:50;;;;;;;1.20;0.70;;;;;;;45.53;11.71;98319.31;4985289;28;20034;-85
2022/08/01 05:09:16;;;;;;;1.73;0.80;;;;;;;45.90;10.81;98318.94;5015156;28;20033;-85
2022/08/01 05:11:41;;;;;;;3.07;0.80;;;;;;;46.30;10.96;98323.28;4964741;28;20041;-85
2022/08/01 05:14:08;;;;;;;4.07;1.05;;;;;;;46.68;10.57;98310.56;4980388;28;20061;-86
2022/08/01 05:16:34;;;;;;;2.20;0.88;;;;;;;46.90;10.26;98320.78;4996920;28;20029;-84
2022/08/01 05:18:59;;;;;;;1.70;0.90;;;;;;;47.21;10.02;98321.69;4995188;28;20033;-82
2022/08/01 05:21:25;;;;;;;1.63;0.80;;;;;;;47.60;9.84;98321.47;4981726;28;20038;-83
2022/08/01 05:23:50;;;;;;;4.07;1.17;;;;;;;47.80;9.67;98311.06;4975133;28;20053;-86
2022/08/01 05:26:16;;;;;;;3.20;0.70;;;;;;;48.08;9.52;98317.31;4965675;28;20105;-83
2022/08/01 05:28:42;;;;;;;2.27;0.60;;;;;;;48.23;9.15;98321.03;5004913;28;20037;-69
2022/08/01 05:31:07;;;;;;;4.05;0.85;;;;;;;48.47;9.55;98326.03;5012012;28;20041;-68
2022/08/01 05:33:32;;;;;;;2.97;0.63;;;;;;;48.64;9.18;98330.16;5008762;28;20485;-70
2022/08/01 05:35:58;;;;;;;7.70;1.30;;;;;;;48.86;9.10;98338.69;4961962;28;20117;-73
2022/08/01 05:38:24;;;;;;;2.92;1.40;;;;;;;48.90;9.63;98333.94;4962186;28;20092;-72
2022/08/01 05:40:49;;;;;;;2.40;1.20;;;;;;;49.00;9.06;98330.47;5011285;28;20048;-70
2022/08/01 05:43:15;;;;;;;4.97;1.30;;;;;;;49.03;9.39;98332.47;4994153;28;20036;-69
2022/08/01 05:45:41;;;;;;;4.27;1.13;;;;;;;49.08;9.45;98334.88;4994100;28;20111;-70
2022/08/01 05:48:06;;;;;;;1.75;0.90;;;;;;;49.10;8.95;98333.69;4994189;28;20042;-72
2022/08/01 05:50:32;;;;;;;2.60;1.10;;;;;;;49.28;8.45;98337.41;4977526;28;20083;-72
2022/08/01 05:52:58;;;;;;;5.40;1.10;;;;;;;49.32;8.34;98331.88;4993858;28;20018;-71
2022/08/01 05:55:23;;;;;;;2.23;0.90;;;;;;;49.37;8.25;98342.59;4993562;28;20041;-71
2022/08/01 05:57:49;;;;;;;2.23;0.80;;;;;;;49.44;8.14;98342.66;4977722;28;20096;-71
2022/08/01 06:00:15;;;;;;;3.17;0.80;;;;;;;49.39;8.09;98343.81;4977285;28;20300;-70
2022/08/01 06:02:44;;;;;;;2.35;0.80;;;;;;;49.40;8.25;98341.84;4977666;28;20127;-69
2022/08/01 06:05:10;;;;;;;3.78;1.05;;;;;;;49.41;8.16;98341.44;4977308;28;20032;-73
2022/08/01 06:07:36;;;;;;;4.10;0.70;;;;;;;49.40;7.82;98339.06;4977262;28;20022;-72
2022/08/01 06:10:01;;;;;;;1.70;0.80;;;;;;;49.40;7.94;98333.50;4977440;28;20124;-72
2022/08/01 06:12:27;;;;;;;3.03;0.73;;;;;;;49.40;8.08;98339.06;4961296;28;20280;-72
2022/08/01 06:14:52;;;;;;;3.00;0.83;;;;;;;49.32;8.28;98340.22;4992957;28;20405;-71
2022/08/01 06:17:18;;;;;;;2.83;0.80;;;;;;;49.17;8.26;98331.00;4974900;28;20077;-72
2022/08/01 06:19:43;;;;;;;8.60;0.80;;;;;;;49.15;8.63;98331.38;4993372;28;20382;-73
2022/08/01 06:22:09;;;;;;;3.83;0.80;;;;;;;49.11;8.55;98322.22;4977278;28;20022;-72
2022/08/01 06:24:34;;;;;;;7.60;0.90;;;;;;;49.12;8.44;98320.25;4977281;28;20560;-76
2022/08/01 06:27:00;;;;;;;2.10;1.00;;;;;;;49.07;7.80;98322.22;4961210;28;20034;-79
2022/08/01 06:29:25;;;;;;;1.43;0.83;;;;;;;49.05;7.96;98316.25;4961057;28;20029;-72
2022/08/01 06:31:51;;;;;;;2.43;0.70;;;;;;;49.00;8.19;98313.06;4977410;28;20030;-72
2022/08/01 06:34:16;;;;;;;2.17;0.93;;;;;;;48.95;8.04;98303.13;4960756;28;20030;-72
2022/08/01 06:36:42;;;;;;;1.93;0.80;;;;;;;48.93;8.18;98326.84;4976298;28;20269;-76
2022/08/01 06:39:07;;;;;;;2.37;0.90;;;;;;;48.88;8.66;98308.59;4961082;28;20104;-77
2022/08/01 06:41:33;;;;;;;2.37;0.87;;;;;;;48.81;8.21;98311.34;4976968;28;20080;-76
2022/08/01 06:44:02;;;;;;;1.40;0.80;;;;;;;48.75;8.36;98304.53;4976634;28;20025;-74
2022/08/01 06:46:27;;;;;;;1.73;0.85;;;;;;;48.70;8.32;98303.69;4961552;28;20062;-74
2022/08/01 06:48:53;;;;;;;4.33;0.73;;;;;;;48.63;8.80;98302.84;4973828;28;20037;-71
2022/08/01 06:51:20;;;;;;;1.40;0.93;;;;;;;48.57;9.03;98301.59;4977654;28;20029;-79
2022/08/01 06:53:45;;;;;;;2.03;0.88;;;;;;;48.53;9.20;98294.06;4964155;28;20552;-77
2022/08/01 06:56:11;;;;;;;1.60;0.90;;;;;;;48.37;9.02;98288.75;4960588;28;20088;-75
2022/08/01 06:58:36;;;;;;;2.63;1.00;;;;;;;48.28;8.91;98299.34;4993145;28;20813;-74
2022/08/01 07:01:08;;;;;;;2.47;1.10;;;;;;;48.18;8.68;98287.00;4992942;28;20030;-71
2022/08/01 07:03:34;;;;;;;3.95;0.90;;;;;;;48.12;9.13;98294.03;4970609;28;20053;-75
2022/08/01 07:05:59;;;;;;;3.58;1.10;;;;;;;48.00;8.94;98292.31;4957395;28;20405;-73
2022/08/01 07:08:25;;;;;;;3.63;1.03;;;;;;;47.90;9.33;98294.97;4956721;28;20030;-70
2022/08/01 07:10:50;;;;;;;1.93;1.07;;;;;;;47.76;8.88;98295.59;4989460;28;20198;-73
2022/08/01 07:13:20;;;;;;;4.30;0.87;;;;;;;47.72;9.12;98297.53;4973369;28;20165;-74
2022/08/01 07:15:46;;;;;;;3.90;0.93;;;;;;;47.63;9.52;98284.75;4972359;28;20568;-74
2022/08/01 07:18:12;;;;;;;5.22;1.00;;;;;;;47.50;9.51;98288.13;4973474;28;20023;-73
2022/08/01 07:20:37;;;;;;;1.43;0.83;;;;;;;47.43;9.47;98294.34;4957222;28;20045;-73
2022/08/01 07:23:03;;;;;;;3.70;1.17;;;;;;;47.37;9.20;98288.38;4972775;28;20041;-73
2022/08/01 07:25:29;;;;;;;2.30;0.80;;;;;;;47.29;9.10;98289.41;4958408;28;20037;-75
2022/08/01 07:27:54;;;;;;;2.37;1.00;;;;;;;47.19;9.67;98288.06;4976870;28;20484;-76
2022/08/01 07:30:19;;;;;;;2.27;1.00;;;;;;;47.12;9.46;98285.22;4959400;28;20077;-75
2022/08/01 07:32:45;;;;;;;2.80;0.80;;;;;;;47.06;8.95;98272.91;4991004;28;20042;-73
2022/08/01 07:35:10;;;;;;;2.53;0.90;;;;;;;47.00;9.50;98266.09;4993912;28;20526;-77
2022/08/01 07:37:36;;;;;;;3.27;1.10;;;;;;;46.92;9.95;98259.69;4975030;28;20054;-72
2022/08/01 07:40:04;;;;;;;3.03;1.00;;;;;;;46.84;9.29;98266.22;4994293;28;20041;-73
2022/08/01 07:42:29;;;;;;;6.93;1.02;;;;;;;46.77;9.62;98264.16;4992812;28;20049;-75
2022/08/01 07:44:55;;;;;;;11.60;1.13;;;;;;;46.69;9.32;98274.28;4976971;28;20528;-72
2022/08/01 07:47:25;;;;;;;8.43;1.20;;;;;;;46.62;9.84;98268.66;4993892;28;20109;-77
2022/08/01 07:49:50;;;;;;;9.82;1.02;;;;;;;46.52;9.55;98259.00;4976766;28;20386;-74
2022/08/01 07:52:16;;;;;;;2.60;1.00;;;;;;;46.49;9.41;98268.00;4960753;28;20133;-74
2022/08/01 07:54:41;;;;;;;2.60;0.97;;;;;;;46.43;9.91;98266.72;4959276;28;20085;-75
2022/08/01 07:57:07;;;;;;;2.33;1.10;;;;;;;46.36;9.96;98272.13;4976520;28;20034;-75
2022/08/01 07:59:33;;;;;;;2.50;1.00;;;;;;;46.29;9.99;98263.72;4975640;28;20498;-76
2022/08/01 08:01:58;;;;;;;4.63;0.90;;;;;;;46.20;10.71;98256.50;4961636;28;20556;-74
2022/08/01 08:04:24;;;;;;;2.40;0.70;;;;;;;46.14;10.06;98257.94;4961366;28;20089;-73
2022/08/01 08:06:49;;;;;;;4.23;0.90;;;;;;;46.08;10.35;98258.59;4962070;28;20038;-73
2022/08/01 08:09:15;;;;;;;1.77;0.80;;;;;;;46.01;10.06;98267.53;4993375;28;20046;-75
2022/08/01 08:11:44;;;;;;;2.20;1.00;;;;;;;45.91;10.55;98273.63;4993799;28;20046;-75
2022/08/01 08:14:10;;;;;;;4.20;0.70;;;;;;;45.79;10.22;98252.56;4961124;28;20034;-77
2022/08/01 08:16:35;;;;;;;3.40;1.10;;;;;;;45.70;10.30;98266.50;4961436;28;20065;-74
2022/08/01 08:19:01;;;;;;;2.57;0.90;;;;;;;45.57;10.21;98265.06;4977692;28;20042;-76
2022/08/01 08:21:27;;;;;;;2.50;0.80;;;;;;;45.48;10.62;98268.03;4977133;28;20057;-76
2022/08/01 08:26:37;;;;;;;1.58;0.90;;;;;;;45.28;10.92;98269.94;4980241;28;20058;-75
2022/08/01 08:29:03;;;;;;;4.68;0.90;;;;;;;45.16;10.82;98257.88;4977384;28;20561;-74
2022/08/01 08:31:28;;;;;;;3.80;0.87;;;;;;;45.08;11.23;98264.38;4992990;28;20093;-74
2022/08/01 08:33:54;;;;;;;2.70;0.90;;;;;;;45.01;11.31;98260.66;4993558;28;20057;-74
2022/08/01 08:36:19;;;;;;;2.87;1.17;;;;;;;44.87;11.43;98252.88;4976873;28;20061;-74
2022/08/01 08:38:45;;;;;;;1.77;0.90;;;;;;;44.75;11.53;98262.00;4977133;28;20126;-73
2022/08/01 08:41:10;;;;;;;4.87;1.00;;;;;;;44.69;11.40;98255.97;4977008;28;20061;-73
2022/08/01 08:43:36;;;;;;;3.40;0.73;;;;;;;44.60;11.59;98258.13;4972498;28;20034;-74
2022/08/01 08:46:01;;;;;;;3.03;0.80;;;;;;;44.49;11.88;98243.25;4989335;28;20050;-76
2022/08/01 08:48:27;;;;;;;3.00;0.70;;;;;;;44.38;11.55;98232.00;4977264;28;20515;-75
2022/08/01 08:50:53;;;;;;;2.23;1.17;;;;;;;44.28;11.63;98254.53;4955629;28;20474;-81
2022/08/01 08:53:19;;;;;;;3.03;0.82;;;;;;;44.13;11.66;98243.13;4977604;28;20038;-71
2022/08/01 08:55:45;;;;;;;4.50;1.03;;;;;;;44.03;12.07;98241.69;4961120;28;20496;-78
2022/08/01 08:58:12;;;;;;;2.07;0.77;;;;;;;43.91;12.02;98245.28;4960525;28;20058;-75
2022/08/01 09:00:39;;;;;;;1.52;0.90;;;;;;;43.80;12.03;98243.41;4960963;28;20031;-76
2022/08/01 09:03:04;;;;;;;2.22;0.80;;;;;;;43.70;12.01;98236.44;4960559;28;20082;-75
2022/08/01 09:05:30;;;;;;;4.20;0.67;;;;;;;43.51;12.40;98234.34;4972463;28;20074;-77
2022/08/01 09:07:57;;;;;;;2.35;1.05;;;;;;;43.39;12.55;98232.41;4990672;28;20029;-72
2022/08/01 09:10:22;;;;;;;1.40;0.90;;;;;;;43.30;12.53;98238.03;4957400;28;20027;-73
2022/08/01 09:13:10;;;;;;;1.30;0.70;;;;;;;43.16;12.91;98235.63;4947288;28;20092;-73
2022/08/01 09:15:46;;;;;;;2.45;0.80;;;;;;;43.07;12.89;98239.66;4977521;28;20061;-79
2022/08/01 09:18:44;;;;;;;7.33;1.07;;;;;;;42.90;13.17;98221.47;4983873;28;20031;-74
2022/08/01 09:21:11;;;;;;;5.00;0.90;;;;;;;42.76;13.08;98208.88;4981411;28;20386;-73
2022/08/01 09:23:45;;;;;;;3.20;1.23;;;;;;;42.56;13.32;98210.63;4973707;28;20030;-75
2022/08/01 09:26:11;;;;;;;4.13;0.93;;;;;;;42.38;13.76;98211.94;4992269;28;20132;-76
2022/08/01 09:28:37;;;;;;;2.75;1.15;;;;;;;42.23;13.86;98219.69;4957138;28;20062;-74
2022/08/01 09:31:07;;;;;;;3.80;0.87;;;;;;;42.15;13.88;98214.28;4974909;28;20125;-71
2022/08/01 09:33:56;;;;;;;2.30;1.10;;;;;;;42.02;14.02;98218.91;4971755;28;20393;-72
2022/08/01 09:36:23;;;;;;;2.58;1.10;;;;;;;41.87;13.87;98212.94;4972104;28;20174;-71
2022/08/01 09:38:49;;;;;;;7.28;1.10;;;;;;;41.72;13.89;98205.34;4974717;28;20113;-70
2022/08/01 09:41:15;;;;;;;2.72;0.90;;;;;;;41.63;14.27;98215.56;4974323;28;20037;-72
2022/08/01 09:43:41;;;;;;;5.30;1.20;;;;;;;41.49;14.24;98215.84;4973373;28;20039;-71
2022/08/01 09:46:12;;;;;;;2.47;1.03;;;;;;;41.37;14.01;98211.09;4974446;28;20084;-72
2022/08/01 09:48:40;;;;;;;4.18;1.17;;;;;;;41.28;14.32;98216.63;4974108;28;20543;-69
2022/08/01 09:51:07;;;;;;;12.23;1.30;;;;;;;41.14;14.42;98208.66;4973948;28;20538;-73
2022/08/01 09:53:47;;;;;;;22.92;1.80;;;;;;;41.03;14.54;98219.19;4971316;28;20038;-74
2022/08/01 09:56:12;;;;;;;9.38;1.38;;;;;;;40.94;14.38;98215.69;4971914;28;20116;-73
2022/08/01 09:58:58;;;;;;;5.40;0.95;;;;;;;40.73;14.40;98225.78;4974711;28;20034;-77
2022/08/01 10:01:23;;;;;;;5.35;1.20;;;;;;;40.64;14.48;98236.75;4988260;28;20043;-77
2022/08/01 10:04:24;;;;;;;5.05;1.00;;;;;;;40.49;14.78;98227.94;4979401;28;20042;-73
2022/08/01 10:06:53;;;;;;;4.07;0.95;;;;;;;40.39;14.82;98222.81;4916435;29;20035;-74
2022/08/01 10:09:40;;;;;;;8.70;1.08;;;;;;;40.24;14.90;98210.47;4894266;29;20046;-77
2022/08/01 10:12:05;;;;;;;;;;;;;;;40.22;15.26;98231.09;4896334;29;20024;-82
2022/08/01 10:14:31;;;;;;;2.43;1.30;;;;;;;40.09;15.14;98222.75;4915847;29;20392;-81
2022/08/01 10:16:57;;;;;;;3.22;1.65;;;;;;;40.01;15.54;98233.69;4916737;29;20039;-76
2022/08/01 10:19:26;;;;;;;2.65;1.27;;;;;;;39.89;15.47;98235.13;4885647;29;20562;-79
2022/08/01 10:21:53;;;;;;;4.07;1.58;;;;;;;39.74;15.25;98230.97;4901894;29;20075;-78
2022/08/01 10:24:23;;;;;;;7.10;1.42;;;;;;;39.65;15.58;98232.06;4901615;29;20035;-77
2022/08/01 10:26:49;;;;;;;3.60;1.20;;;;;;;39.53;15.19;98217.13;4901478;29;20438;-79
2022/08/01 10:29:18;;;;;;;3.40;1.40;;;;;;;39.42;15.41;98230.28;4885645;29;20039;-78
2022/08/01 10:31:45;;;;;;;4.40;1.05;;;;;;;39.22;15.59;98233.63;4901726;29;20141;-78
2022/08/01 10:34:11;;;;;;;;;;;;;;;39.13;15.62;98225.44;4882600;29;20063;-78
2022/08/01 10:36:38;;;;;;;6.77;1.20;;;;;;;39.01;15.85;98231.47;4916565;29;19973;-78
2022/08/01 10:39:05;;;;;;;6.22;1.10;;;;;;;38.86;16.53;98230.00;4886188;29;20050;-78
2022/08/01 10:41:31;;;;;;;2.25;0.90;;;;;;;38.76;16.58;98232.19;4951961;28;20133;-77
2022/08/01 10:43:57;;;;;;;4.53;1.10;;;;;;;38.60;16.58;98227.13;4956152;28;20462;-76
2022/08/01 10:46:22;;;;;;;2.13;1.20;;;;;;;38.48;16.76;98229.66;4972392;28;20074;-78
2022/08/01 10:49:00;;;;;;;6.13;1.10;;;;;;;38.30;16.68;98236.94;4972086;28;20042;-76
2022/08/01 10:51:26;;;;;;;6.32;0.93;;;;;;;38.15;17.04;98233.50;4971942;28;20034;-78
2022/08/01 10:53:53;;;;;;;4.53;1.00;;;;;;;38.07;16.86;98228.78;4955979;28;20065;-77
2022/08/01 10:56:18;;;;;;;2.15;0.90;;;;;;;37.82;17.24;98222.81;4955747;28;20050;-77
2022/08/01 10:58:45;;;;;;;3.60;0.90;;;;;;;37.69;17.15;98234.59;4971492;28;20505;-79
2022/08/01 11:01:15;;;;;;;;;;;;;;;37.60;17.05;98239.91;4955936;28;20045;-78
2022/08/01 11:03:56;;;;;;;1.80;0.75;;;;;;;37.42;17.50;98227.28;4954532;28;20365;-77
2022/08/01 11:06:28;;;;;;;3.50;0.80;;;;;;;37.25;17.58;98245.03;4954658;28;20050;-77
2022/08/01 11:08:54;;;;;;;1.50;0.80;;;;;;;37.12;17.78;98241.22;4971513;28;20035;-77
2022/08/01 11:11:20;;;;;;;3.42;0.90;;;;;;;37.06;17.92;98239.69;4971407;28;20034;-77
2022/08/01 11:13:57;;;;;;;1.63;0.80;;;;;;;36.97;18.07;98235.28;4955501;28;20033;-78
2022/08/01 11:16:30;;;;;;;2.67;0.90;;;;;;;36.83;17.92;98224.41;4972939;28;20070;-76
2022/08/01 11:18:56;;;;;;;2.70;0.90;;;;;;;36.80;18.17;98234.00;4955304;28;20417;-77
2022/08/01 11:21:23;;;;;;;1.73;0.75;;;;;;;36.68;18.35;98231.72;4955236;28;20046;-77
2022/08/01 11:23:51;;;;;;;1.05;0.80;;;;;;;36.56;18.21;98218.66;4955358;28;20089;-78
2022/08/01 11:26:17;;;;;;;2.20;0.93;;;;;;;36.52;18.38;98222.25;4971745;28;20031;-78
2022/08/01 11:28:43;;;;;;;3.25;1.13;;;;;;;36.47;18.47;98214.19;4939400;28;20066;-77
2022/08/01 11:31:10;;;;;;;3.15;0.80;;;;;;;36.35;18.83;98218.19;4988160;28;20048;-77
2022/08/01 11:33:42;;;;;;;2.05;0.82;;;;;;;36.24;19.02;98205.88;4990412;28;20045;-80
2022/08/01 11:36:10;;;;;;;5.38;1.13;;;;;;;36.23;18.91;98215.16;4990859;28;20030;-77
2022/08/01 11:38:37;;;;;;;4.55;0.98;;;;;;;36.12;19.13;98205.53;4991561;28;20030;-75
2022/08/01 11:41:24;;;;;;;2.80;1.10;;;;;;;36.14;19.25;98211.50;4990056;28;20100;-76
2022/08/01 11:44:09;;;;;;;3.13;1.08;;;;;;;36.08;19.35;98212.69;4984158;28;20039;-81
2022/08/01 11:46:56;;;;;;;1.20;0.82;;;;;;;36.03;19.18;98219.81;4972514;28;20093;-77